sensor_id;sensor_type;location;lat;lon;timestamp;pressure;altitude;pressure_sealevel;temperature;humidity
13934;BME280;7039;52.168;9.866;2023-11-21T00:00:54;99932.44;;;8.30;99.40
13934;BME280;7039;52.168;9.866;2023-11-21T00:03:21;99940.91;;;8.16;99.55
13934;BME280;7039;52.168;9.866;2023-11-21T00:05:48;99935.94;;;8.12;100.00
13934;BME280;7039;52.168;9.866;2023-11-21T00:08:15;99943.50;;;8.16;100.00
13934;BME280;7039;52.168;9.866;2023-11-21T00:10:41;99945.88;;;8.21;100.00
13934;BME280;7039;52.168;9.866;2023-11-21T00:13:08;99942.78;;;8.32;99.41
13934;BME280;7039;52.168;9.866;2023-11-21T00:15:37;99949.84;;;8.47;98.90
13934;BME280;7039;52.168;9.866;2023-11-21T00:18:05;99946.44;;;8.28;99.49
13934;BME280;7039;52.168;9.866;2023-11-21T00:20:32;99955.28;;;8.24;100.00
13934;BME280;7039;52.168;9.866;2023-11-21T00:22:58;99950.91;;;8.07;100.00
13934;BME280;7039;52.168;9.866;2023-11-21T00:25:27;99950.38;;;8.00;100.00
13934;BME280;7039;52.168;9.866;2023-11-21T00:27:54;99951.38;;;8.15;100.00
13934;BME280;7039;52.168;9.866;2023-11-21T00:30:20;99953.38;;;8.27;100.00
13934;BME280;7039;52.168;9.866;2023-11-21T00:32:47;99962.50;;;8.36;100.00
13934;BME280;7039;52.168;9.866;2023-11-21T00:35:15;99956.81;;;8.28;100.00
13934;BME280;7039;52.168;9.866;2023-11-21T00:37:41;99954.75;;;8.17;100.00
13934;BME280;7039;52.168;9.866;2023-11-21T00:40:09;99956.09;;;8.43;99.81
13934;BME280;7039;52.168;9.866;2023-11-21T00:42:36;99959.03;;;8.35;99.61
13934;BME280;7039;52.168;9.866;2023-11-21T00:45:03;99964.97;;;8.56;98.79
13934;BME280;7039;52.168;9.866;2023-11-21T00:47:29;99961.44;;;8.57;98.30
13934;BME280;7039;52.168;9.866;2023-11-21T00:49:56;99965.59;;;8.62;97.88
13934;BME280;7039;52.168;9.866;2023-11-21T00:52:24;99955.94;;;8.46;98.50
13934;BME280;7039;52.168;9.866;2023-11-21T00:54:51;99959.47;;;8.45;98.82
13934;BME280;7039;52.168;9.866;2023-11-21T00:57:17;99955.06;;;8.28;99.59
13934;BME280;7039;52.168;9.866;2023-11-21T00:59:44;99959.03;;;8.35;99.69
13934;BME280;7039;52.168;9.866;2023-11-21T01:02:10;99958.44;;;8.30;99.29
13934;BME280;7039;52.168;9.866;2023-11-21T01:04:37;99971.91;;;8.39;99.15
13934;BME280;7039;52.168;9.866;2023-11-21T01:07:04;99970.63;;;8.47;99.29
13934;BME280;7039;52.168;9.866;2023-11-21T01:09:32;99978.03;;;8.55;99.75
13934;BME280;7039;52.168;9.866;2023-11-21T01:11:58;99980.34;;;8.44;99.78
13934;BME280;7039;52.168;9.866;2023-11-21T01:14:25;99980.81;;;8.33;99.92
13934;BME280;7039;52.168;9.866;2023-11-21T01:16:52;99984.75;;;8.42;99.78
13934;BME280;7039;52.168;9.866;2023-11-21T01:19:18;99987.00;;;8.30;100.00
13934;BME280;7039;52.168;9.866;2023-11-21T01:21:45;99993.88;;;8.68;98.81
13934;BME280;7039;52.168;9.866;2023-11-21T01:24:12;100003.50;;;8.83;97.56
13934;BME280;7039;52.168;9.866;2023-11-21T01:26:40;99994.41;;;8.57;97.96
13934;BME280;7039;52.168;9.866;2023-11-21T01:29:06;99991.31;;;8.31;99.87
13934;BME280;7039;52.168;9.866;2023-11-21T01:31:32;99999.00;;;8.33;100.00
13934;BME280;7039;52.168;9.866;2023-11-21T01:33:59;99994.25;;;8.43;100.00
13934;BME280;7039;52.168;9.866;2023-11-21T01:36:30;99997.41;;;8.49;99.69
13934;BME280;7039;52.168;9.866;2023-11-21T01:38:57;99997.25;;;8.52;99.49
13934;BME280;7039;52.168;9.866;2023-11-21T01:41:24;99999.91;;;8.51;99.78
13934;BME280;7039;52.168;9.866;2023-11-21T01:43:53;100000.97;;;8.47;99.87
13934;BME280;7039;52.168;9.866;2023-11-21T01:46:20;100002.78;;;8.45;99.61
13934;BME280;7039;52.168;9.866;2023-11-21T01:48:47;100008.06;;;8.61;99.30
13934;BME280;7039;52.168;9.866;2023-11-21T01:51:15;100015.59;;;8.67;98.88
13934;BME280;7039;52.168;9.866;2023-11-21T01:53:41;100012.22;;;8.47;99.68
13934;BME280;7039;52.168;9.866;2023-11-21T01:56:08;100016.50;;;8.66;98.99
13934;BME280;7039;52.168;9.866;2023-11-21T01:58:35;100005.94;;;8.51;100.00
13934;BME280;7039;52.168;9.866;2023-11-21T02:01:03;100005.19;;;8.49;100.00
13934;BME280;7039;52.168;9.866;2023-11-21T02:03:29;100006.03;;;8.50;100.00
13934;BME280;7039;52.168;9.866;2023-11-21T02:05:56;100006.94;;;8.49;99.91
13934;BME280;7039;52.168;9.866;2023-11-21T02:08:23;100020.50;;;8.73;99.24
13934;BME280;7039;52.168;9.866;2023-11-21T02:10:50;100008.75;;;8.47;99.87
13934;BME280;7039;52.168;9.866;2023-11-21T02:13:16;100012.75;;;8.71;99.17
13934;BME280;7039;52.168;9.866;2023-11-21T02:15:43;100010.78;;;8.59;98.71
13934;BME280;7039;52.168;9.866;2023-11-21T02:18:11;100017.97;;;8.71;98.57
13934;BME280;7039;52.168;9.866;2023-11-21T02:20:38;100020.03;;;8.82;97.85
13934;BME280;7039;52.168;9.866;2023-11-21T02:23:08;100021.69;;;8.83;98.15
13934;BME280;7039;52.168;9.866;2023-11-21T02:25:34;100020.47;;;8.55;99.66
13934;BME280;7039;52.168;9.866;2023-11-21T02:28:02;100029.19;;;8.89;98.40
13934;BME280;7039;52.168;9.866;2023-11-21T02:30:29;100031.25;;;8.83;98.47
13934;BME280;7039;52.168;9.866;2023-11-21T02:32:57;100021.72;;;8.66;99.24
13934;BME280;7039;52.168;9.866;2023-11-21T02:35:23;100029.88;;;8.75;99.15
13934;BME280;7039;52.168;9.866;2023-11-21T02:37:51;100020.56;;;8.54;99.35
13934;BME280;7039;52.168;9.866;2023-11-21T02:40:19;100027.66;;;8.50;99.93
13934;BME280;7039;52.168;9.866;2023-11-21T02:42:46;100019.78;;;8.69;99.71
13934;BME280;7039;52.168;9.866;2023-11-21T02:45:13;100035.78;;;8.79;99.28
13934;BME280;7039;52.168;9.866;2023-11-21T02:47:41;100030.72;;;8.76;98.34
13934;BME280;7039;52.168;9.866;2023-11-21T02:50:08;100036.47;;;8.83;98.62
13934;BME280;7039;52.168;9.866;2023-11-21T02:52:35;100038.47;;;8.95;97.74
13934;BME280;7039;52.168;9.866;2023-11-21T02:55:02;100034.94;;;8.96;97.41
13934;BME280;7039;52.168;9.866;2023-11-21T02:57:30;100032.09;;;8.83;97.78
13934;BME280;7039;52.168;9.866;2023-11-21T02:59:56;100033.72;;;8.86;98.54
13934;BME280;7039;52.168;9.866;2023-11-21T03:02:23;100040.34;;;8.74;98.43
13934;BME280;7039;52.168;9.866;2023-11-21T03:04:49;100038.28;;;8.81;98.74
13934;BME280;7039;52.168;9.866;2023-11-21T03:07:16;100033.88;;;8.83;98.66
13934;BME280;7039;52.168;9.866;2023-11-21T03:09:44;100037.69;;;8.75;99.24
13934;BME280;7039;52.168;9.866;2023-11-21T03:12:11;100039.53;;;8.91;98.13
13934;BME280;7039;52.168;9.866;2023-11-21T03:14:39;100042.28;;;8.88;97.73
13934;BME280;7039;52.168;9.866;2023-11-21T03:17:06;100049.84;;;8.92;97.83
13934;BME280;7039;52.168;9.866;2023-11-21T03:19:32;100052.59;;;8.89;98.49
13934;BME280;7039;52.168;9.866;2023-11-21T03:21:59;100052.69;;;8.70;99.32
13934;BME280;7039;52.168;9.866;2023-11-21T03:24:25;100052.44;;;8.57;100.00
13934;BME280;7039;52.168;9.866;2023-11-21T03:26:52;100068.59;;;8.82;99.37
13934;BME280;7039;52.168;9.866;2023-11-21T03:29:18;100059.47;;;8.55;100.00
13934;BME280;7039;52.168;9.866;2023-11-21T03:31:46;100063.34;;;8.47;100.00
13934;BME280;7039;52.168;9.866;2023-11-21T03:34:15;100060.13;;;8.42;100.00
13934;BME280;7039;52.168;9.866;2023-11-21T03:36:43;100064.41;;;8.43;100.00
13934;BME280;7039;52.168;9.866;2023-11-21T03:39:11;100070.78;;;8.54;100.00
13934;BME280;7039;52.168;9.866;2023-11-21T03:41:38;100077.47;;;8.77;100.00
13934;BME280;7039;52.168;9.866;2023-11-21T03:44:04;100074.94;;;8.59;100.00
13934;BME280;7039;52.168;9.866;2023-11-21T03:46:31;100076.75;;;8.56;100.00
13934;BME280;7039;52.168;9.866;2023-11-21T03:48:59;100069.25;;;8.31;100.00
13934;BME280;7039;52.168;9.866;2023-11-21T03:51:25;100076.50;;;8.44;100.00
13934;BME280;7039;52.168;9.866;2023-11-21T03:53:51;100073.06;;;8.61;100.00
13934;BME280;7039;52.168;9.866;2023-11-21T03:56:18;100074.03;;;8.41;100.00
13934;BME280;7039;52.168;9.866;2023-11-21T03:58:46;100080.09;;;8.40;100.00
13934;BME280;7039;52.168;9.866;2023-11-21T04:01:19;100087.91;;;8.59;100.00
13934;BME280;7039;52.168;9.866;2023-11-21T04:03:47;100090.75;;;8.71;100.00
13934;BME280;7039;52.168;9.866;2023-11-21T04:06:15;100087.31;;;8.71;100.00
13934;BME280;7039;52.168;9.866;2023-11-21T04:08:42;100079.78;;;8.47;100.00
13934;BME280;7039;52.168;9.866;2023-11-21T04:11:09;100080.19;;;8.38;100.00
13934;BME280;7039;52.168;9.866;2023-11-21T04:13:37;100080.41;;;8.52;100.00
13934;BME280;7039;52.168;9.866;2023-11-21T04:16:04;100083.50;;;8.42;100.00
13934;BME280;7039;52.168;9.866;2023-11-21T04:18:30;100087.22;;;8.36;100.00
13934;BME280;7039;52.168;9.866;2023-11-21T04:20:57;100091.00;;;8.29;100.00
13934;BME280;7039;52.168;9.866;2023-11-21T04:23:25;100108.94;;;8.54;100.00
13934;BME280;7039;52.168;9.866;2023-11-21T04:25:52;100107.19;;;8.54;100.00
13934;BME280;7039;52.168;9.866;2023-11-21T04:28:21;100107.50;;;8.66;99.83
13934;BME280;7039;52.168;9.866;2023-11-21T04:30:47;100100.44;;;8.31;100.00
13934;BME280;7039;52.168;9.866;2023-11-21T04:33:14;100105.00;;;8.45;100.00
13934;BME280;7039;52.168;9.866;2023-11-21T04:35:40;100107.81;;;8.41;100.00
13934;BME280;7039;52.168;9.866;2023-11-21T04:38:07;100108.56;;;8.62;100.00
13934;BME280;7039;52.168;9.866;2023-11-21T04:40:35;100119.13;;;8.76;100.00
13934;BME280;7039;52.168;9.866;2023-11-21T04:43:01;100120.28;;;8.70;99.89
13934;BME280;7039;52.168;9.866;2023-11-21T04:45:29;100118.63;;;8.50;100.00
13934;BME280;7039;52.168;9.866;2023-11-21T04:47:55;100120.28;;;8.51;100.00
13934;BME280;7039;52.168;9.866;2023-11-21T04:50:22;100125.59;;;8.50;100.00
13934;BME280;7039;52.168;9.866;2023-11-21T04:52:48;100128.25;;;8.48;100.00
13934;BME280;7039;52.168;9.866;2023-11-21T04:55:15;100137.28;;;8.40;100.00
13934;BME280;7039;52.168;9.866;2023-11-21T04:57:42;100139.63;;;8.46;100.00
13934;BME280;7039;52.168;9.866;2023-11-21T05:00:10;100135.81;;;8.34;100.00
13934;BME280;7039;52.168;9.866;2023-11-21T05:02:37;100142.44;;;8.22;100.00
13934;BME280;7039;52.168;9.866;2023-11-21T05:05:05;100147.69;;;8.21;100.00
13934;BME280;7039;52.168;9.866;2023-11-21T05:07:33;100152.97;;;8.38;100.00
13934;BME280;7039;52.168;9.866;2023-11-21T05:10:00;100146.50;;;8.28;100.00
13934;BME280;7039;52.168;9.866;2023-11-21T05:12:31;100152.94;;;8.19;100.00
13934;BME280;7039;52.168;9.866;2023-11-21T05:15:01;100160.69;;;8.21;100.00
13934;BME280;7039;52.168;9.866;2023-11-21T05:17:29;100154.22;;;8.29;100.00
13934;BME280;7039;52.168;9.866;2023-11-21T05:19:55;100154.50;;;8.23;100.00
13934;BME280;7039;52.168;9.866;2023-11-21T05:22:21;100153.78;;;8.20;100.00
13934;BME280;7039;52.168;9.866;2023-11-21T05:24:48;100159.88;;;8.37;100.00
13934;BME280;7039;52.168;9.866;2023-11-21T05:27:15;100158.50;;;8.30;100.00
13934;BME280;7039;52.168;9.866;2023-11-21T05:29:42;100154.44;;;8.25;100.00
13934;BME280;7039;52.168;9.866;2023-11-21T05:32:10;100165.56;;;8.08;100.00
13934;BME280;7039;52.168;9.866;2023-11-21T05:34:36;100167.91;;;8.33;100.00
13934;BME280;7039;52.168;9.866;2023-11-21T05:37:03;100171.84;;;8.23;100.00
13934;BME280;7039;52.168;9.866;2023-11-21T05:39:30;100176.56;;;8.33;100.00
13934;BME280;7039;52.168;9.866;2023-11-21T05:41:57;100182.56;;;8.15;100.00
13934;BME280;7039;52.168;9.866;2023-11-21T05:44:25;100182.50;;;8.16;100.00
13934;BME280;7039;52.168;9.866;2023-11-21T05:46:51;100184.34;;;8.33;100.00
13934;BME280;7039;52.168;9.866;2023-11-21T05:49:19;100191.28;;;8.33;100.00
13934;BME280;7039;52.168;9.866;2023-11-21T05:51:47;100182.81;;;8.29;100.00
13934;BME280;7039;52.168;9.866;2023-11-21T05:54:13;100191.44;;;8.30;100.00
13934;BME280;7039;52.168;9.866;2023-11-21T05:56:39;100189.94;;;8.24;100.00
13934;BME280;7039;52.168;9.866;2023-11-21T05:59:06;100192.50;;;8.45;100.00
13934;BME280;7039;52.168;9.866;2023-11-21T06:01:32;100196.19;;;8.41;100.00
13934;BME280;7039;52.168;9.866;2023-11-21T06:03:59;100206.16;;;8.50;100.00
13934;BME280;7039;52.168;9.866;2023-11-21T06:06:27;100200.03;;;8.51;100.00
13934;BME280;7039;52.168;9.866;2023-11-21T06:08:54;100193.09;;;8.31;100.00
13934;BME280;7039;52.168;9.866;2023-11-21T06:11:20;100217.53;;;8.47;100.00
13934;BME280;7039;52.168;9.866;2023-11-21T06:13:47;100206.59;;;8.39;100.00
13934;BME280;7039;52.168;9.866;2023-11-21T06:16:15;100214.78;;;8.50;100.00
13934;BME280;7039;52.168;9.866;2023-11-21T06:18:44;100216.53;;;8.69;100.00
13934;BME280;7039;52.168;9.866;2023-11-21T06:21:11;100221.13;;;8.64;100.00
13934;BME280;7039;52.168;9.866;2023-11-21T06:23:39;100226.47;;;8.80;100.00
13934;BME280;7039;52.168;9.866;2023-11-21T06:26:06;100225.06;;;8.72;100.00
13934;BME280;7039;52.168;9.866;2023-11-21T06:28:43;100241.44;;;8.74;100.00
13934;BME280;7039;52.168;9.866;2023-11-21T06:31:12;100240.44;;;8.77;100.00
13934;BME280;7039;52.168;9.866;2023-11-21T06:33:39;100252.53;;;8.97;100.00
13934;BME280;7039;52.168;9.866;2023-11-21T06:36:07;100253.63;;;8.91;100.00
13934;BME280;7039;52.168;9.866;2023-11-21T06:38:36;100260.81;;;8.86;100.00
13934;BME280;7039;52.168;9.866;2023-11-21T06:41:05;100256.47;;;8.87;100.00
13934;BME280;7039;52.168;9.866;2023-11-21T06:43:32;100261.28;;;8.94;100.00
13934;BME280;7039;52.168;9.866;2023-11-21T06:45:59;100261.50;;;8.90;100.00
13934;BME280;7039;52.168;9.866;2023-11-21T06:48:25;100265.59;;;8.76;100.00
13934;BME280;7039;52.168;9.866;2023-11-21T06:50:52;100266.44;;;8.96;100.00
13934;BME280;7039;52.168;9.866;2023-11-21T06:53:18;100279.09;;;8.85;100.00
13934;BME280;7039;52.168;9.866;2023-11-21T06:55:44;100278.53;;;8.97;100.00
13934;BME280;7039;52.168;9.866;2023-11-21T06:58:12;100295.16;;;9.12;100.00
13934;BME280;7039;52.168;9.866;2023-11-21T07:00:39;100294.97;;;9.16;100.00
13934;BME280;7039;52.168;9.866;2023-11-21T07:03:12;100304.16;;;9.24;100.00
13934;BME280;7039;52.168;9.866;2023-11-21T07:05:44;100298.34;;;8.99;100.00
13934;BME280;7039;52.168;9.866;2023-11-21T07:08:49;100306.16;;;8.99;100.00
13934;BME280;7039;52.168;9.866;2023-11-21T07:11:19;100295.53;;;9.04;100.00
13934;BME280;7039;52.168;9.866;2023-11-21T07:17:39;100317.66;;;9.13;100.00
13934;BME280;7039;52.168;9.866;2023-11-21T07:20:07;100323.53;;;9.18;100.00
13934;BME280;7039;52.168;9.866;2023-11-21T07:22:35;100324.13;;;9.23;100.00
13934;BME280;7039;52.168;9.866;2023-11-21T07:25:02;100332.72;;;9.25;100.00
13934;BME280;7039;52.168;9.866;2023-11-21T07:27:28;100331.94;;;9.23;100.00
13934;BME280;7039;52.168;9.866;2023-11-21T07:29:55;100331.03;;;9.05;100.00
13934;BME280;7039;52.168;9.866;2023-11-21T07:32:22;100324.84;;;9.08;100.00
13934;BME280;7039;52.168;9.866;2023-11-21T07:34:49;100333.38;;;9.11;100.00
13934;BME280;7039;52.168;9.866;2023-11-21T07:37:15;100342.28;;;9.06;100.00
13934;BME280;7039;52.168;9.866;2023-11-21T07:39:42;100346.28;;;9.13;100.00
13934;BME280;7039;52.168;9.866;2023-11-21T07:42:09;100345.50;;;8.92;100.00
13934;BME280;7039;52.168;9.866;2023-11-21T07:44:36;100354.16;;;8.92;100.00
13934;BME280;7039;52.168;9.866;2023-11-21T07:47:02;100349.66;;;8.77;100.00
13934;BME280;7039;52.168;9.866;2023-11-21T07:49:31;100355.38;;;8.65;100.00
13934;BME280;7039;52.168;9.866;2023-11-21T07:51:57;100360.66;;;8.63;100.00
13934;BME280;7039;52.168;9.866;2023-11-21T07:54:24;100367.16;;;8.53;100.00
13934;BME280;7039;52.168;9.866;2023-11-21T07:56:50;100366.97;;;8.57;100.00
13934;BME280;7039;52.168;9.866;2023-11-21T07:59:16;100374.56;;;8.62;100.00
13934;BME280;7039;52.168;9.866;2023-11-21T08:01:43;100387.72;;;8.59;100.00
13934;BME280;7039;52.168;9.866;2023-11-21T08:04:10;100389.34;;;8.41;100.00
13934;BME280;7039;52.168;9.866;2023-11-21T08:06:37;100387.56;;;8.62;100.00
13934;BME280;7039;52.168;9.866;2023-11-21T08:09:04;100389.31;;;8.62;100.00
13934;BME280;7039;52.168;9.866;2023-11-21T08:11:30;100405.31;;;8.52;100.00
13934;BME280;7039;52.168;9.866;2023-11-21T08:13:58;100408.50;;;8.59;100.00
13934;BME280;7039;52.168;9.866;2023-11-21T08:16:25;100405.66;;;8.65;100.00
13934;BME280;7039;52.168;9.866;2023-11-21T08:18:52;100406.16;;;8.53;100.00
13934;BME280;7039;52.168;9.866;2023-11-21T08:21:19;100411.03;;;8.40;100.00
13934;BME280;7039;52.168;9.866;2023-11-21T08:23:47;100415.38;;;8.60;100.00
13934;BME280;7039;52.168;9.866;2023-11-21T08:26:18;100421.66;;;8.34;100.00
13934;BME280;7039;52.168;9.866;2023-11-21T08:28:45;100421.66;;;8.34;100.00
13934;BME280;7039;52.168;9.866;2023-11-21T08:31:14;100428.66;;;8.32;100.00
13934;BME280;7039;52.168;9.866;2023-11-21T08:33:41;100435.94;;;8.46;100.00
13934;BME280;7039;52.168;9.866;2023-11-21T08:43:49;100452.56;;;8.42;100.00
13934;BME280;7039;52.168;9.866;2023-11-21T08:46:16;100450.72;;;8.44;100.00
13934;BME280;7039;52.168;9.866;2023-11-21T08:48:43;100455.88;;;8.45;100.00
13934;BME280;7039;52.168;9.866;2023-11-21T08:51:10;100462.31;;;8.57;99.22
13934;BME280;7039;52.168;9.866;2023-11-21T08:53:38;100467.31;;;8.62;98.79
13934;BME280;7039;52.168;9.866;2023-11-21T09:05:47;100461.28;;;8.61;98.02
13934;BME280;7039;52.168;9.866;2023-11-21T09:11:44;100481.56;;;8.73;97.67
13934;BME280;7039;52.168;9.866;2023-11-21T09:14:32;100480.69;;;8.52;98.63
13934;BME280;7039;52.168;9.866;2023-11-21T09:17:25;100493.19;;;8.65;97.98
13934;BME280;7039;52.168;9.866;2023-11-21T09:22:52;100504.06;;;8.74;97.32
13934;BME280;7039;52.168;9.866;2023-11-21T09:28:13;100503.53;;;8.66;97.06
13934;BME280;7039;52.168;9.866;2023-11-21T09:31:31;100522.66;;;8.86;96.39
13934;BME280;7039;52.168;9.866;2023-11-21T09:34:07;100518.78;;;8.74;96.48
13934;BME280;7039;52.168;9.866;2023-11-21T09:37:12;100527.75;;;8.67;96.58
13934;BME280;7039;52.168;9.866;2023-11-21T09:40:20;100548.47;;;8.70;96.08
13934;BME280;7039;52.168;9.866;2023-11-21T09:43:22;100559.31;;;8.80;95.86
13934;BME280;7039;52.168;9.866;2023-11-21T09:46:50;100554.13;;;8.80;94.83
13934;BME280;7039;52.168;9.866;2023-11-21T09:49:59;100564.28;;;8.86;93.93
13934;BME280;7039;52.168;9.866;2023-11-21T10:00:16;100568.16;;;8.96;91.51
13934;BME280;7039;52.168;9.866;2023-11-21T10:10:01;100602.34;;;9.50;87.40
13934;BME280;7039;52.168;9.866;2023-11-21T10:12:55;100603.38;;;9.46;86.89
13934;BME280;7039;52.168;9.866;2023-11-21T10:15:58;100602.25;;;9.51;87.38
13934;BME280;7039;52.168;9.866;2023-11-21T10:22:09;100613.69;;;9.68;87.21
13934;BME280;7039;52.168;9.866;2023-11-21T10:24:58;100616.16;;;9.71;86.21
13934;BME280;7039;52.168;9.866;2023-11-21T10:30:41;100611.13;;;9.47;87.51
13934;BME280;7039;52.168;9.866;2023-11-21T10:43:35;100628.81;;;9.39;85.92
13934;BME280;7039;52.168;9.866;2023-11-21T10:46:07;100637.34;;;9.63;85.02
13934;BME280;7039;52.168;9.866;2023-11-21T10:49:00;100643.59;;;9.38;85.97
13934;BME280;7039;52.168;9.866;2023-11-21T10:51:28;100632.63;;;9.10;85.74
13934;BME280;7039;52.168;9.866;2023-11-21T10:54:11;100649.25;;;9.28;86.08
13934;BME280;7039;52.168;9.866;2023-11-21T10:56:58;100646.84;;;9.23;86.21
13934;BME280;7039;52.168;9.866;2023-11-21T10:59:30;100647.69;;;9.24;86.15
13934;BME280;7039;52.168;9.866;2023-11-21T11:02:02;100645.06;;;9.03;87.28
13934;BME280;7039;52.168;9.866;2023-11-21T11:04:53;100660.50;;;9.28;86.70
13934;BME280;7039;52.168;9.866;2023-11-21T11:07:27;100671.88;;;9.26;86.52
13934;BME280;7039;52.168;9.866;2023-11-21T11:10:05;100662.28;;;9.06;86.00
13934;BME280;7039;52.168;9.866;2023-11-21T11:12:53;100661.84;;;9.16;85.43
13934;BME280;7039;52.168;9.866;2023-11-21T11:15:26;100660.50;;;9.28;84.80
13934;BME280;7039;52.168;9.866;2023-11-21T11:18:11;100660.78;;;9.00;85.16
13934;BME280;7039;52.168;9.866;2023-11-21T11:20:53;100675.88;;;9.34;84.43
13934;BME280;7039;52.168;9.866;2023-11-21T11:24:08;100674.63;;;9.43;85.27
13934;BME280;7039;52.168;9.866;2023-11-21T11:26:50;100686.50;;;9.50;85.37
13934;BME280;7039;52.168;9.866;2023-11-21T11:29:50;100687.22;;;9.54;84.39
13934;BME280;7039;52.168;9.866;2023-11-21T11:37:31;100682.88;;;9.32;83.82
13934;BME280;7039;52.168;9.866;2023-11-21T11:39:58;100695.34;;;9.67;82.75
13934;BME280;7039;52.168;9.866;2023-11-21T11:42:26;100694.94;;;9.76;81.97
13934;BME280;7039;52.168;9.866;2023-11-21T11:45:00;100698.66;;;9.91;81.57
13934;BME280;7039;52.168;9.866;2023-11-21T11:47:39;100702.31;;;10.06;81.27
13934;BME280;7039;52.168;9.866;2023-11-21T11:50:25;100692.72;;;9.87;81.20
13934;BME280;7039;52.168;9.866;2023-11-21T11:53:24;100714.34;;;10.29;80.18
13934;BME280;7039;52.168;9.866;2023-11-21T11:55:58;100720.72;;;10.42;80.21
13934;BME280;7039;52.168;9.866;2023-11-21T11:58:47;100716.38;;;10.42;79.88
13934;BME280;7039;52.168;9.866;2023-11-21T12:01:16;100706.63;;;10.07;79.81
13934;BME280;7039;52.168;9.866;2023-11-21T12:03:43;100700.78;;;9.81;80.63
13934;BME280;7039;52.168;9.866;2023-11-21T12:06:10;100715.44;;;10.04;79.21
13934;BME280;7039;52.168;9.866;2023-11-21T12:08:38;100719.22;;;10.17;79.54
13934;BME280;7039;52.168;9.866;2023-11-21T12:11:05;100713.44;;;9.90;79.28
13934;BME280;7039;52.168;9.866;2023-11-21T12:13:31;100718.88;;;10.04;78.76
13934;BME280;7039;52.168;9.866;2023-11-21T12:15:58;100723.56;;;9.96;79.08
13934;BME280;7039;52.168;9.866;2023-11-21T12:18:25;100723.31;;;10.02;80.28
13934;BME280;7039;52.168;9.866;2023-11-21T12:20:52;100731.69;;;9.90;79.76
13934;BME280;7039;52.168;9.866;2023-11-21T12:23:18;100724.63;;;9.51;80.45
13934;BME280;7039;52.168;9.866;2023-11-21T12:25:47;100741.81;;;9.76;80.74
13934;BME280;7039;52.168;9.866;2023-11-21T12:28:14;100733.94;;;9.57;78.45
13934;BME280;7039;52.168;9.866;2023-11-21T12:30:40;100741.03;;;9.53;79.85
13934;BME280;7039;52.168;9.866;2023-11-21T12:33:06;100740.66;;;9.83;80.25
13934;BME280;7039;52.168;9.866;2023-11-21T12:35:35;100738.56;;;9.91;80.29
13934;BME280;7039;52.168;9.866;2023-11-21T12:38:02;100748.84;;;9.94;79.75
13934;BME280;7039;52.168;9.866;2023-11-21T12:40:30;100740.00;;;9.98;79.39
13934;BME280;7039;52.168;9.866;2023-11-21T12:42:58;100749.31;;;10.04;79.15
13934;BME280;7039;52.168;9.866;2023-11-21T12:45:27;100751.41;;;9.96;79.20
13934;BME280;7039;52.168;9.866;2023-11-21T12:47:55;100761.75;;;9.97;78.95
13934;BME280;7039;52.168;9.866;2023-11-21T12:50:25;100767.41;;;10.07;78.86
13934;BME280;7039;52.168;9.866;2023-11-21T12:52:57;100769.19;;;9.86;78.66
13934;BME280;7039;52.168;9.866;2023-11-21T12:55:24;100757.72;;;9.70;79.07
13934;BME280;7039;52.168;9.866;2023-11-21T12:57:52;100758.69;;;9.67;78.27
13934;BME280;7039;52.168;9.866;2023-11-21T13:00:32;100770.34;;;9.58;79.31
13934;BME280;7039;52.168;9.866;2023-11-21T13:03:03;100773.78;;;9.59;79.85
13934;BME280;7039;52.168;9.866;2023-11-21T13:05:32;100766.66;;;9.42;79.99
13934;BME280;7039;52.168;9.866;2023-11-21T13:08:01;100772.97;;;9.36;79.50
13934;BME280;7039;52.168;9.866;2023-11-21T13:10:29;100774.88;;;9.53;79.08
13934;BME280;7039;52.168;9.866;2023-11-21T13:12:57;100767.72;;;9.16;79.08
13934;BME280;7039;52.168;9.866;2023-11-21T13:15:26;100774.72;;;9.36;79.12
13934;BME280;7039;52.168;9.866;2023-11-21T13:17:53;100778.88;;;9.40;79.66
13934;BME280;7039;52.168;9.866;2023-11-21T13:20:21;100773.75;;;9.38;78.59
13934;BME280;7039;52.168;9.866;2023-11-21T13:22:50;100781.56;;;9.38;79.31
13934;BME280;7039;52.168;9.866;2023-11-21T13:25:19;100793.78;;;9.58;78.94
13934;BME280;7039;52.168;9.866;2023-11-21T13:27:46;100789.22;;;9.64;79.24
13934;BME280;7039;52.168;9.866;2023-11-21T13:30:14;100782.16;;;9.23;80.40
13934;BME280;7039;52.168;9.866;2023-11-21T13:32:43;100782.03;;;9.26;80.08
13934;BME280;7039;52.168;9.866;2023-11-21T13:35:11;100785.25;;;9.33;79.74
13934;BME280;7039;52.168;9.866;2023-11-21T13:37:47;100778.16;;;9.14;79.71
13934;BME280;7039;52.168;9.866;2023-11-21T13:40:19;100777.28;;;9.15;79.32
13934;BME280;7039;52.168;9.866;2023-11-21T13:42:48;100791.25;;;9.35;79.25
13934;BME280;7039;52.168;9.866;2023-11-21T13:45:19;100792.34;;;9.07;78.63
13934;BME280;7039;52.168;9.866;2023-11-21T13:47:47;100791.97;;;8.71;79.64
13934;BME280;7039;52.168;9.866;2023-11-21T13:50:16;100797.78;;;8.77;79.74
13934;BME280;7039;52.168;9.866;2023-11-21T13:52:47;100795.38;;;8.73;79.70
13934;BME280;7039;52.168;9.866;2023-11-21T13:55:14;100806.34;;;8.81;79.53
13934;BME280;7039;52.168;9.866;2023-11-21T13:57:41;100813.28;;;8.81;80.02
13934;BME280;7039;52.168;9.866;2023-11-21T14:00:11;100814.75;;;8.64;80.35
13934;BME280;7039;52.168;9.866;2023-11-21T14:02:59;100828.72;;;8.85;79.74
13934;BME280;7039;52.168;9.866;2023-11-21T14:05:26;100833.34;;;9.01;79.92
13934;BME280;7039;52.168;9.866;2023-11-21T14:07:55;100835.06;;;9.02;79.69
13934;BME280;7039;52.168;9.866;2023-11-21T14:10:27;100837.59;;;8.80;80.52
13934;BME280;7039;52.168;9.866;2023-11-21T14:13:02;100839.63;;;8.95;80.21
13934;BME280;7039;52.168;9.866;2023-11-21T14:15:29;100831.44;;;8.82;79.79
13934;BME280;7039;52.168;9.866;2023-11-21T14:17:56;100839.19;;;8.84;79.98
13934;BME280;7039;52.168;9.866;2023-11-21T14:20:24;100846.66;;;8.93;80.17
13934;BME280;7039;52.168;9.866;2023-11-21T14:22:50;100842.34;;;8.92;81.37
13934;BME280;7039;52.168;9.866;2023-11-21T14:25:17;100844.56;;;8.79;80.87
13934;BME280;7039;52.168;9.866;2023-11-21T14:27:44;100843.75;;;8.77;81.59
13934;BME280;7039;52.168;9.866;2023-11-21T14:30:11;100836.97;;;8.49;82.74